createdAt,value
2023-02-09T00:01:24.708Z,97961.53
2023-02-09T00:03:53.074Z,97961.72
2023-02-09T00:06:23.931Z,97955.22
2023-02-09T00:08:51.403Z,97953.84
2023-02-09T00:11:45.623Z,97959.63
2023-02-09T00:14:14.711Z,97957.03
2023-02-09T00:16:42.128Z,97963.25
2023-02-09T00:19:09.330Z,97959.91
2023-02-09T00:21:36.483Z,97961.59
2023-02-09T00:24:04.587Z,97965.19
2023-02-09T00:26:31.467Z,97962.31
2023-02-09T00:28:58.523Z,97966.81
2023-02-09T00:31:25.633Z,97966.09
2023-02-09T00:33:52.850Z,97958.75
2023-02-09T00:36:19.863Z,97966.56
2023-02-09T00:42:53.430Z,97970.09
2023-02-09T00:45:20.221Z,97955.91
2023-02-09T00:47:47.070Z,97961.34
2023-02-09T00:50:13.985Z,97971.63
2023-02-09T00:52:40.865Z,97971.69
2023-02-09T00:55:07.952Z,97976.75
2023-02-09T00:57:36.069Z,97983.28
2023-02-09T01:00:08.374Z,97964.81
2023-02-09T01:02:35.391Z,97964.81
2023-02-09T01:05:02.645Z,97974.63
2023-02-09T01:07:29.523Z,97972.97
2023-02-09T01:09:56.329Z,97961.06
2023-02-09T01:12:23.232Z,97968.84
2023-02-09T01:14:50.043Z,97970.81
2023-02-09T01:17:17.009Z,97964.84
2023-02-09T01:19:43.841Z,97976.56
2023-02-09T01:22:12.272Z,97959.56
2023-02-09T01:24:40.701Z,97959.84
2023-02-09T01:27:07.530Z,97951.66
2023-02-09T01:29:34.355Z,97955.13
2023-02-09T01:32:01.343Z,97949.31
2023-02-09T01:51:00.107Z,97919.00
2023-02-09T01:53:28.128Z,97915.94
2023-02-09T01:56:02.417Z,97913.00
2023-02-09T01:58:29.444Z,97921.75
2023-02-09T02:00:57.135Z,97921.63
2023-02-09T02:03:27.755Z,97929.69
2023-02-09T02:06:05.973Z,97919.25
2023-02-09T02:08:40.264Z,97922.88
2023-02-09T02:11:08.998Z,97918.56
2023-02-09T02:13:36.767Z,97923.16
2023-02-09T02:16:22.851Z,97917.19
2023-02-09T02:19:19.426Z,97901.75
2023-02-09T02:22:04.317Z,97909.78
2023-02-09T02:25:17.790Z,97905.91
2023-02-09T02:28:08.846Z,97902.84
2023-02-09T02:31:46.182Z,97891.97
2023-02-09T02:34:21.781Z,97891.97
2023-02-09T02:36:58.459Z,97885.00
2023-02-09T02:39:39.619Z,97883.19
2023-02-09T02:42:52.075Z,97885.66
2023-02-09T02:45:43.587Z,97875.81
2023-02-09T02:48:45.748Z,97880.53
2023-02-09T02:51:25.030Z,97878.25
2023-02-09T02:53:57.205Z,97868.06
2023-02-09T02:56:36.482Z,97875.69
2023-02-09T02:59:08.358Z,97876.31
2023-02-09T03:01:43.869Z,97877.91
2023-02-09T03:04:13.117Z,97880.53
2023-02-09T03:06:39.991Z,97876.78
2023-02-09T03:09:07.128Z,97873.59
2023-02-09T03:11:43.664Z,97880.31
2023-02-09T03:14:16.194Z,97886.22
2023-02-09T03:17:12.440Z,97882.88
2023-02-09T03:19:51.663Z,97875.53
2023-02-09T03:22:24.992Z,97884.78
2023-02-09T03:25:32.471Z,97882.22
2023-02-09T03:28:08.804Z,97888.47
2023-02-09T03:30:36.952Z,97894.03
2023-02-09T03:33:05.233Z,97891.59
2023-02-09T03:35:39.301Z,97894.25
2023-02-09T03:38:07.162Z,97891.97
2023-02-09T03:40:34.838Z,97890.13
2023-02-09T03:43:01.666Z,97902.06
2023-02-09T03:45:28.512Z,97906.44
2023-02-09T03:47:55.368Z,97890.41
2023-02-09T03:50:22.174Z,97893.00
2023-02-09T03:52:49.072Z,97891.59
2023-02-09T03:55:15.875Z,97885.84
2023-02-09T03:57:42.788Z,97889.03
2023-02-09T04:00:10.682Z,97894.31
2023-02-09T04:02:37.507Z,97895.44
2023-02-09T04:05:05.865Z,97905.13
2023-02-09T04:07:33.102Z,97894.88
2023-02-09T04:09:59.937Z,97903.31
2023-02-09T04:12:26.754Z,97893.31
2023-02-09T04:14:53.582Z,97890.97
2023-02-09T04:17:20.418Z,97887.72
2023-02-09T04:19:47.206Z,97885.34
2023-02-09T04:22:14.057Z,97890.84
2023-02-09T04:24:40.863Z,97884.91
2023-02-09T04:27:07.726Z,97890.13
2023-02-09T04:29:34.527Z,97880.00
2023-02-09T04:32:01.383Z,97880.28
2023-02-09T04:34:28.274Z,97894.00
2023-02-09T04:36:55.132Z,97883.00
2023-02-09T04:39:22.011Z,97882.53
2023-02-09T04:41:48.847Z,97893.69
2023-02-09T04:44:15.647Z,97898.94
2023-02-09T04:46:44.154Z,97902.47
2023-02-09T04:49:12.731Z,97904.31
2023-02-09T04:51:39.544Z,97900.09
2023-02-09T04:54:06.365Z,97899.72
2023-02-09T04:56:33.246Z,97896.63
2023-02-09T04:59:18.374Z,97891.75
2023-02-09T05:01:45.245Z,97903.25
2023-02-09T05:04:12.023Z,97899.16
2023-02-09T05:06:38.857Z,97900.50
2023-02-09T05:09:05.669Z,97907.19
2023-02-09T05:11:32.484Z,97909.88
2023-02-09T05:13:59.278Z,97909.66
2023-02-09T05:16:26.176Z,97907.09
2023-02-09T05:18:53.013Z,97913.84
2023-02-09T05:21:19.857Z,97919.13
2023-02-09T05:23:46.861Z,97916.56
2023-02-09T05:26:13.690Z,97922.47
2023-02-09T05:28:40.498Z,97925.69
2023-02-09T05:31:07.381Z,97921.38
2023-02-09T05:33:34.252Z,97925.69
2023-02-09T05:36:01.175Z,97927.34
2023-02-09T05:38:27.966Z,97923.84
2023-02-09T05:40:54.833Z,97920.41
2023-02-09T05:43:21.651Z,97918.63
2023-02-09T05:45:48.626Z,97922.09
2023-02-09T05:48:15.481Z,97932.34
2023-02-09T05:50:42.320Z,97930.41
2023-02-09T05:53:09.639Z,97931.19
2023-02-09T05:55:36.587Z,97933.75
2023-02-09T05:58:03.752Z,97934.47
2023-02-09T06:00:31.049Z,97935.28
2023-02-09T06:02:58.737Z,97930.31
2023-02-09T06:05:26.082Z,97937.34
2023-02-09T06:07:53.049Z,97942.34
2023-02-09T06:10:20.120Z,97942.34
2023-02-09T06:12:47.264Z,97945.72
2023-02-09T06:15:16.233Z,97949.13
2023-02-09T06:17:43.151Z,97952.47
2023-02-09T06:20:10.916Z,97960.16
2023-02-09T06:22:37.757Z,97952.53
2023-02-09T06:25:04.895Z,97967.06
2023-02-09T06:27:31.724Z,97962.06
2023-02-09T06:29:58.536Z,97963.72
2023-02-09T06:32:25.398Z,97968.19
2023-02-09T06:34:52.238Z,97961.16
2023-02-09T06:37:19.089Z,97972.19
2023-02-09T06:39:45.892Z,97962.84
2023-02-09T06:42:12.741Z,97980.47
2023-02-09T06:44:39.603Z,97990.63
2023-02-09T06:47:06.452Z,97991.44
2023-02-09T06:49:33.262Z,97984.41
2023-02-09T06:52:00.274Z,97987.38
2023-02-09T06:54:29.233Z,97984.22
2023-02-09T06:56:56.140Z,97985.59
2023-02-09T06:59:23.375Z,97985.63
2023-02-09T07:01:54.572Z,97983.31
2023-02-09T07:04:22.476Z,97981.41
2023-02-09T07:06:49.381Z,97990.13
2023-02-09T07:09:16.218Z,98002.28
2023-02-09T07:11:43.710Z,97994.97
2023-02-09T07:14:10.702Z,97999.94
2023-02-09T07:16:37.519Z,97991.81
2023-02-09T07:19:04.377Z,97992.47
2023-02-09T07:21:31.191Z,97996.34
2023-02-09T07:23:58.040Z,97997.25
2023-02-09T07:26:24.923Z,97987.47
2023-02-09T07:28:51.842Z,97983.69
2023-02-09T07:31:19.340Z,97984.44
2023-02-09T07:33:46.618Z,97982.84
2023-02-09T07:36:16.100Z,97986.91
2023-02-09T07:38:43.646Z,97984.63
2023-02-09T07:41:17.111Z,97981.84
2023-02-09T07:43:44.217Z,97976.44
2023-02-09T07:46:14.851Z,97987.84
2023-02-09T07:48:41.924Z,97989.47
2023-02-09T07:51:19.684Z,97988.63
2023-02-09T07:53:47.660Z,97999.72
2023-02-09T07:56:14.489Z,97992.56
2023-02-09T07:58:41.277Z,97993.91
2023-02-09T08:01:11.791Z,97991.72
2023-02-09T08:03:41.567Z,97989.84
2023-02-09T08:06:41.599Z,98001.16
2023-02-09T08:09:10.844Z,98004.69
2023-02-09T08:11:49.389Z,98002.09
2023-02-09T08:14:27.004Z,98003.88
2023-02-09T08:17:18.755Z,97996.03
2023-02-09T08:19:51.499Z,98003.34
2023-02-09T08:22:18.929Z,98007.72
2023-02-09T08:24:45.795Z,98006.28
2023-02-09T08:27:12.698Z,98000.13
2023-02-09T08:29:39.697Z,97997.75
2023-02-09T08:32:06.617Z,97997.06
2023-02-09T08:34:33.471Z,98012.19
2023-02-09T08:37:00.281Z,98002.72
2023-02-09T08:39:27.148Z,98007.06
2023-02-09T08:41:53.920Z,98000.84
2023-02-09T08:44:20.745Z,97998.72
2023-02-09T08:46:47.726Z,97998.47
2023-02-09T08:49:14.830Z,97999.56
2023-02-09T08:51:41.684Z,97997.00
2023-02-09T08:54:08.539Z,97990.94
2023-02-09T08:56:35.408Z,97989.34
2023-02-09T08:59:02.279Z,97986.16
2023-02-09T09:01:29.254Z,97982.66
2023-02-09T09:03:56.200Z,97984.25
2023-02-09T09:06:23.205Z,97985.38
2023-02-09T09:08:51.561Z,97975.84
2023-02-09T09:11:18.580Z,97973.25
2023-02-09T09:13:45.552Z,97977.00
2023-02-09T09:16:21.939Z,97980.47
2023-02-09T09:18:49.246Z,97974.56
2023-02-09T09:21:18.527Z,97974.75
2023-02-09T09:23:47.052Z,97975.31
2023-02-09T09:26:15.650Z,97974.53
2023-02-09T09:28:42.657Z,97977.16
2023-02-09T09:31:16.568Z,97989.88
2023-02-09T09:33:44.617Z,97993.22
2023-02-09T09:36:12.665Z,97987.59
2023-02-09T09:38:40.307Z,97997.28
2023-02-09T09:41:21.387Z,97998.50
2023-02-09T09:43:48.837Z,97988.66
2023-02-09T09:46:21.140Z,98001.16
2023-02-09T09:48:57.644Z,97996.03
2023-02-09T09:51:44.843Z,98004.34
2023-02-09T09:54:21.207Z,98001.97
2023-02-09T09:56:50.104Z,98006.41
2023-02-09T09:59:24.164Z,97998.34
2023-02-09T10:01:54.122Z,97994.88
2023-02-09T10:04:21.180Z,97989.09
2023-02-09T10:06:59.430Z,97997.75
2023-02-09T10:09:35.128Z,98000.72
2023-02-09T10:12:18.373Z,97997.84
2023-02-09T10:14:45.247Z,97998.13
2023-02-09T10:17:12.070Z,97995.22
2023-02-09T10:19:39.005Z,97998.91
2023-02-09T10:22:13.429Z,97978.13
2023-02-09T10:24:41.886Z,97995.97
2023-02-09T10:27:29.517Z,97993.84
2023-02-09T10:30:18.205Z,97987.09
2023-02-09T10:32:45.113Z,98002.22
2023-02-09T10:35:35.098Z,97994.78
2023-02-09T10:38:04.047Z,97993.34
2023-02-09T10:40:40.346Z,97999.41
2023-02-09T10:43:26.538Z,97986.16
2023-02-09T10:46:18.118Z,97984.44
2023-02-09T10:48:47.220Z,97975.38
2023-02-09T10:51:29.429Z,97976.78
2023-02-09T10:53:58.202Z,97972.88
2023-02-09T10:56:36.711Z,97965.41
2023-02-09T10:59:16.668Z,97964.16
2023-02-09T11:01:55.084Z,97966.13
2023-02-09T11:04:26.090Z,97958.38
2023-02-09T11:06:54.916Z,97953.75
2023-02-09T11:09:33.588Z,97946.44
2023-02-09T11:12:01.130Z,97958.63
2023-02-09T11:14:28.517Z,97941.03
2023-02-09T11:17:14.640Z,97937.66
2023-02-09T11:20:21.458Z,97944.56
2023-02-09T11:23:25.862Z,97948.44
2023-02-09T11:26:05.241Z,97946.63
2023-02-09T11:28:56.571Z,97943.44
2023-02-09T11:31:54.185Z,97940.31
2023-02-09T11:35:04.590Z,97937.22
2023-02-09T11:37:54.137Z,97942.59
2023-02-09T11:40:43.026Z,97938.22
2023-02-09T11:43:37.806Z,97935.19
2023-02-09T11:46:15.824Z,97934.44
2023-02-09T11:49:12.989Z,97922.22
2023-02-09T11:51:43.995Z,97928.63
2023-02-09T11:54:20.982Z,97928.44
2023-02-09T11:56:56.361Z,97934.09
2023-02-09T11:59:46.978Z,97925.75
2023-02-09T12:02:47.380Z,97919.00
2023-02-09T12:05:19.908Z,97913.13
2023-02-09T12:08:01.742Z,97905.53
2023-02-09T12:10:29.104Z,97907.16
2023-02-09T12:13:20.084Z,97912.78
2023-02-09T12:15:54.772Z,97903.94
2023-02-09T12:18:26.108Z,97920.94
2023-02-09T12:21:00.382Z,97909.41
2023-02-09T12:23:33.908Z,97895.09
2023-02-09T12:26:15.979Z,97900.56
2023-02-09T12:28:49.422Z,97898.06
2023-02-09T12:31:22.799Z,97896.84
2023-02-09T12:33:49.588Z,97893.09
2023-02-09T12:36:16.364Z,97901.41
2023-02-09T12:38:56.917Z,97894.06
2023-02-09T12:41:42.930Z,97892.91
2023-02-09T12:44:09.641Z,97886.59
2023-02-09T12:46:46.631Z,97878.88
2023-02-09T12:49:20.537Z,97877.59
2023-02-09T12:51:50.401Z,97878.50
2023-02-09T12:54:48.851Z,97882.41
2023-02-09T12:57:15.601Z,97883.53
2023-02-09T13:00:04.830Z,97880.75
2023-02-09T13:02:49.695Z,97868.59
2023-02-09T13:05:38.091Z,97868.81
2023-02-09T13:08:29.921Z,97864.06
2023-02-09T13:11:20.342Z,97863.34
2023-02-09T13:13:58.004Z,97865.22
2023-02-09T13:16:42.113Z,97860.38
2023-02-09T13:20:04.010Z,97862.72
2023-02-09T13:22:44.363Z,97864.09
2023-02-09T13:25:27.049Z,97868.19
2023-02-09T13:27:53.906Z,97861.97
2023-02-09T13:30:32.440Z,97860.53
2023-02-09T13:33:48.436Z,97855.34
2023-02-09T13:37:00.703Z,97856.19
2023-02-09T13:39:32.375Z,97859.41
2023-02-09T13:41:59.383Z,97864.22
2023-02-09T13:44:29.943Z,97865.97
2023-02-09T13:47:01.955Z,97865.63
2023-02-09T13:49:30.148Z,97864.28
2023-02-09T13:52:14.585Z,97864.13
2023-02-09T13:54:43.394Z,97858.75
2023-02-09T13:57:31.344Z,97860.44
2023-02-09T14:00:23.439Z,97858.94
2023-02-09T14:03:12.499Z,97852.41
2023-02-09T14:05:49.485Z,97849.13
2023-02-09T14:08:18.387Z,97847.94
2023-02-09T14:10:59.850Z,97852.53
2023-02-09T14:13:44.319Z,97848.22
2023-02-09T14:16:15.769Z,97849.41
2023-02-09T14:18:53.862Z,97850.31
2023-02-09T14:21:37.828Z,97848.00
2023-02-09T14:24:27.616Z,97854.38
2023-02-09T14:27:06.267Z,97847.72
2023-02-09T14:29:36.814Z,97848.94
2023-02-09T14:32:45.237Z,97849.78
2023-02-09T14:35:34.672Z,97850.38
2023-02-09T14:38:03.161Z,97850.72
2023-02-09T14:40:34.358Z,97856.16
2023-02-09T14:43:01.216Z,97851.19
2023-02-09T14:45:38.799Z,97847.06
2023-02-09T14:48:25.832Z,97862.88
2023-02-09T14:51:04.707Z,97855.06
2023-02-09T14:53:33.194Z,97858.91
2023-02-09T14:56:00.100Z,97851.75
2023-02-09T14:58:30.610Z,97850.94
2023-02-09T15:01:00.760Z,97854.25
2023-02-09T15:03:27.705Z,97853.06
2023-02-09T15:06:04.528Z,97858.81
2023-02-09T15:08:36.086Z,97858.72
2023-02-09T15:11:28.653Z,97852.41
2023-02-09T15:14:03.944Z,97851.03
2023-02-09T15:16:31.352Z,97851.69
2023-02-09T15:18:58.391Z,97858.25
2023-02-09T15:21:25.266Z,97858.88
2023-02-09T15:23:52.060Z,97861.03
2023-02-09T15:26:22.631Z,97859.66
2023-02-09T15:28:49.445Z,97868.16
2023-02-09T15:31:16.512Z,97860.94
2023-02-09T15:33:43.909Z,97874.94
2023-02-09T15:36:19.183Z,97867.88
2023-02-09T15:38:46.164Z,97880.69
2023-02-09T15:41:31.468Z,97881.13
2023-02-09T15:44:23.749Z,97883.69
2023-02-09T15:47:08.791Z,97885.72
2023-02-09T15:49:35.628Z,97888.25
2023-02-09T15:52:02.504Z,97885.03
2023-02-09T15:54:32.474Z,97888.63
2023-02-09T15:57:01.057Z,97891.31
2023-02-09T15:59:27.934Z,97894.00
2023-02-09T16:01:54.793Z,97900.59
2023-02-09T16:04:21.848Z,97897.22
2023-02-09T16:06:54.026Z,97894.59
2023-02-09T16:09:28.668Z,97900.41
2023-02-09T16:11:55.774Z,97900.88
2023-02-09T16:14:25.804Z,97896.13
2023-02-09T16:16:52.789Z,97908.41
2023-02-09T16:19:21.126Z,97906.88
2023-02-09T16:21:54.268Z,97911.66
2023-02-09T16:24:39.720Z,97921.84
2023-02-09T16:27:33.105Z,97932.09
2023-02-09T16:29:59.974Z,97929.81
2023-02-09T16:32:28.629Z,97942.56
2023-02-09T16:35:04.568Z,97944.91
2023-02-09T16:37:37.940Z,97947.97
2023-02-09T16:40:26.868Z,97956.97
2023-02-09T16:42:54.715Z,97956.78
2023-02-09T16:45:22.602Z,97956.66
2023-02-09T16:47:54.912Z,97959.47
2023-02-09T16:50:33.762Z,97967.97
2023-02-09T16:53:04.179Z,97965.06
2023-02-09T16:55:36.560Z,97979.06
2023-02-09T16:58:05.403Z,97974.50
2023-02-09T17:00:36.818Z,97974.34
2023-02-09T17:03:19.770Z,97977.00
2023-02-09T17:05:55.722Z,97983.16
2023-02-09T17:08:32.091Z,97981.47
2023-02-09T17:11:01.170Z,97981.81
2023-02-09T17:13:29.407Z,97989.19
2023-02-09T17:16:05.566Z,97990.84
2023-02-09T17:18:42.271Z,97980.16
2023-02-09T17:21:19.920Z,97996.47
2023-02-09T17:23:46.814Z,98007.88
2023-02-09T17:26:14.472Z,98014.75
2023-02-09T17:28:43.152Z,98011.66
2023-02-09T17:31:18.664Z,98012.66
2023-02-09T17:33:50.152Z,98009.25
2023-02-09T17:36:26.545Z,98008.31
2023-02-09T17:38:56.722Z,98005.19
2023-02-09T17:41:34.519Z,98011.31
2023-02-09T17:44:28.621Z,98009.03
2023-02-09T17:46:58.863Z,98017.09
2023-02-09T17:49:25.779Z,98008.28
2023-02-09T17:51:52.977Z,98012.13
2023-02-09T17:54:21.069Z,98019.47
2023-02-09T17:56:47.979Z,98014.47
2023-02-09T17:59:14.958Z,98019.66
2023-02-09T18:01:49.518Z,98015.25
2023-02-09T18:04:26.845Z,98017.16
2023-02-09T18:06:54.348Z,98014.22
2023-02-09T18:09:22.378Z,98017.91
2023-02-09T18:11:52.199Z,98027.75
2023-02-09T18:14:22.156Z,98028.81
2023-02-09T18:16:50.158Z,98031.50
2023-02-09T18:19:17.723Z,98039.75
2023-02-09T18:22:00.737Z,98032.19
2023-02-09T18:24:33.608Z,98033.28
2023-02-09T18:27:01.124Z,98035.78
2023-02-09T18:29:30.547Z,98027.47
2023-02-09T18:32:02.437Z,98036.38
2023-02-09T18:34:29.554Z,98037.56
2023-02-09T18:36:56.598Z,98032.69
2023-02-09T18:39:23.430Z,98040.63
2023-02-09T18:41:54.542Z,98040.06
2023-02-09T18:44:28.523Z,98046.06
2023-02-09T18:46:57.206Z,98043.41
2023-02-09T18:49:24.106Z,98046.19
2023-02-09T18:51:52.110Z,98047.38
2023-02-09T18:54:19.111Z,98049.41
2023-02-09T18:56:46.007Z,98054.72
2023-02-09T18:59:12.855Z,98054.13
2023-02-09T19:01:40.538Z,98053.97
2023-02-09T19:04:08.203Z,98055.78
2023-02-09T19:06:35.595Z,98052.66
2023-02-09T19:09:02.872Z,98058.22
2023-02-09T19:11:29.947Z,98057.06
2023-02-09T19:14:15.229Z,98058.09
2023-02-09T19:16:42.856Z,98060.78
2023-02-09T19:19:09.674Z,98057.44
2023-02-09T19:21:36.854Z,98059.31
2023-02-09T19:24:04.449Z,98061.13
2023-02-09T19:26:31.299Z,98056.16
2023-02-09T19:28:58.147Z,98056.50
2023-02-09T19:31:25.363Z,98065.00
2023-02-09T19:33:56.941Z,98065.00
2023-02-09T19:36:25.137Z,98066.84
2023-02-09T19:38:52.010Z,98057.88
2023-02-09T19:41:20.483Z,98058.53
2023-02-09T19:43:47.397Z,98057.44
2023-02-09T19:46:14.235Z,98067.50
2023-02-09T19:48:41.680Z,98054.09
2023-02-09T19:51:08.880Z,98062.22
2023-02-09T19:53:36.128Z,98063.41
2023-02-09T19:56:02.941Z,98074.75
2023-02-09T19:58:29.873Z,98071.41
2023-02-09T20:00:56.938Z,98066.44
2023-02-09T20:03:24.798Z,98070.59
2023-02-09T20:05:51.850Z,98080.28
2023-02-09T20:08:20.041Z,98074.47
2023-02-09T20:10:47.574Z,98078.97
2023-02-09T20:13:15.735Z,98084.31
2023-02-09T20:15:44.050Z,98076.72
2023-02-09T20:18:12.730Z,98082.81
2023-02-09T20:20:42.191Z,98079.84
2023-02-09T20:23:10.111Z,98082.50
2023-02-09T20:25:41.509Z,98077.63
2023-02-09T20:28:08.762Z,98085.69
2023-02-09T20:30:35.738Z,98071.47
2023-02-09T20:33:02.812Z,98079.56
2023-02-09T20:35:29.724Z,98080.63
2023-02-09T20:37:56.795Z,98090.38
2023-02-09T20:40:23.800Z,98094.22
2023-02-09T20:43:09.272Z,98096.78
2023-02-09T20:45:54.770Z,98103.56
2023-02-09T20:48:21.662Z,98099.38
2023-02-09T20:50:48.747Z,98099.56
2023-02-09T20:53:15.920Z,98104.72
2023-02-09T20:55:43.192Z,98110.94
2023-02-09T20:58:13.386Z,98108.56
2023-02-09T21:00:42.189Z,98104.56
2023-02-09T21:03:09.356Z,98121.69
2023-02-09T21:05:36.239Z,98118.25
2023-02-09T21:08:04.497Z,98114.13
2023-02-09T21:10:35.746Z,98120.84
2023-02-09T21:13:07.080Z,98107.94
2023-02-09T21:15:38.208Z,98120.03
2023-02-09T21:18:06.646Z,98113.34
2023-02-09T21:20:35.315Z,98114.19
2023-02-09T21:23:02.352Z,98114.19
2023-02-09T21:25:29.359Z,98116.78
2023-02-09T21:27:59.135Z,98122.84
2023-02-09T21:30:27.618Z,98121.50
2023-02-09T21:32:56.138Z,98125.16
2023-02-09T21:35:23.212Z,98124.66
2023-02-09T21:37:50.036Z,98121.31
2023-02-09T21:40:17.176Z,98129.31
2023-02-09T21:42:44.017Z,98127.81
2023-02-09T21:45:10.975Z,98122.66
2023-02-09T21:47:39.718Z,98117.66
2023-02-09T21:50:09.688Z,98106.28
2023-02-09T21:52:36.580Z,98103.13
2023-02-09T21:55:04.539Z,98103.75
2023-02-09T21:57:31.463Z,98105.56
2023-02-09T21:59:59.782Z,98112.13
2023-02-09T22:02:27.432Z,98121.97
2023-02-09T22:04:54.400Z,98123.66
2023-02-09T22:07:21.190Z,98122.16
2023-02-09T22:09:48.063Z,98122.28
2023-02-09T22:12:14.859Z,98132.47
2023-02-09T22:14:41.705Z,98129.13
2023-02-09T22:17:08.671Z,98132.47
2023-02-09T22:19:36.490Z,98142.59
2023-02-09T22:22:04.381Z,98140.72
2023-02-09T22:24:34.715Z,98145.78
2023-02-09T22:27:02.943Z,98148.16
2023-02-09T22:29:30.442Z,98153.06
2023-02-09T22:31:58.281Z,98150.63
2023-02-09T22:34:25.664Z,98148.94
2023-02-09T22:36:53.982Z,98148.94
2023-02-09T22:39:21.857Z,98145.56
2023-02-09T22:41:48.793Z,98148.59
2023-02-09T22:44:17.284Z,98144.56
2023-02-09T22:46:45.505Z,98143.16
2023-02-09T22:49:19.029Z,98146.69
2023-02-09T22:51:48.398Z,98146.03
2023-02-09T22:54:18.580Z,98152.16
2023-02-09T22:56:45.641Z,98140.47
2023-02-09T22:59:14.901Z,98144.78
2023-02-09T23:01:42.556Z,98152.59
2023-02-09T23:04:09.737Z,98154.25
2023-02-09T23:06:36.663Z,98154.56
2023-02-09T23:09:07.324Z,98156.53
2023-02-09T23:11:34.596Z,98157.22
2023-02-09T23:14:10.810Z,98161.53
2023-02-09T23:16:40.242Z,98157.28
2023-02-09T23:19:09.413Z,98158.19
2023-02-09T23:21:41.420Z,98161.84
2023-02-09T23:24:09.434Z,98155.31
2023-02-09T23:26:37.082Z,98152.63
2023-02-09T23:29:07.935Z,98160.59
2023-02-09T23:31:35.534Z,98168.47
2023-02-09T23:34:02.985Z,98171.25
2023-02-09T23:36:33.490Z,98172.84
2023-02-09T23:39:04.730Z,98166.31
2023-02-09T23:41:32.051Z,98176.50
2023-02-09T23:44:00.412Z,98174.06
2023-02-09T23:46:29.167Z,98176.06
2023-02-09T23:48:57.057Z,98190.56
2023-02-09T23:51:29.558Z,98195.72
2023-02-09T23:53:58.889Z,98189.50
2023-02-09T23:56:27.466Z,98185.97
2023-02-09T23:58:54.747Z,98190.56
